createdAt,value
2017-12-09T00:02:25.568Z,7.90
2017-12-09T00:04:53.748Z,6.72
2017-12-09T00:07:21.218Z,7.40
2017-12-09T00:09:48.694Z,7.12
2017-12-09T00:12:16.099Z,7.12
2017-12-09T00:14:43.527Z,6.55
2017-12-09T00:17:10.964Z,6.12
2017-12-09T00:19:38.475Z,5.85
2017-12-09T00:22:05.881Z,5.22
2017-12-09T00:24:33.385Z,5.15
2017-12-09T00:27:00.870Z,5.20
2017-12-09T00:29:28.350Z,4.82
2017-12-09T00:31:55.735Z,5.25
2017-12-09T00:34:23.273Z,4.15
2017-12-09T00:36:50.690Z,4.07
2017-12-09T00:39:18.122Z,4.15
2017-12-09T00:41:45.570Z,3.95
2017-12-09T00:44:13.074Z,3.55
2017-12-09T00:46:40.526Z,3.97
2017-12-09T00:49:07.948Z,3.60
2017-12-09T00:51:35.381Z,3.67
2017-12-09T00:54:02.791Z,4.00
2017-12-09T00:56:30.998Z,3.90
2017-12-09T00:58:59.202Z,3.87
2017-12-09T01:01:26.619Z,4.37
2017-12-09T01:03:54.029Z,3.58
2017-12-09T01:06:21.460Z,3.72
2017-12-09T01:08:48.879Z,3.90
2017-12-09T01:11:16.295Z,3.85
2017-12-09T01:13:43.864Z,3.60
2017-12-09T01:16:23.363Z,4.35
2017-12-09T01:18:58.410Z,5.55
2017-12-09T01:21:26.570Z,4.57
2017-12-09T01:23:54.753Z,5.15
2017-12-09T01:26:22.971Z,4.82
2017-12-09T01:28:50.438Z,5.00
2017-12-09T01:31:17.837Z,4.70
2017-12-09T01:33:45.259Z,4.30
2017-12-09T01:36:12.742Z,4.50
2017-12-09T01:38:40.199Z,4.72
2017-12-09T01:41:07.606Z,3.80
2017-12-09T01:43:35.022Z,3.85
2017-12-09T01:46:03.200Z,3.70
2017-12-09T01:48:31.415Z,3.20
2017-12-09T01:50:59.587Z,3.28
2017-12-09T01:53:27.011Z,4.10
2017-12-09T01:55:54.428Z,3.62
2017-12-09T01:58:21.902Z,3.80
2017-12-09T02:00:49.325Z,3.60
2017-12-09T02:03:16.759Z,3.90
2017-12-09T02:05:44.171Z,4.30
2017-12-09T02:08:11.729Z,3.90
2017-12-09T02:10:39.185Z,3.53
2017-12-09T02:13:06.643Z,3.12
2017-12-09T02:15:34.037Z,3.65
2017-12-09T02:18:01.451Z,3.33
2017-12-09T02:20:28.939Z,3.65
2017-12-09T02:22:56.393Z,3.67
2017-12-09T02:25:23.801Z,3.50
2017-12-09T02:27:52.729Z,3.30
2017-12-09T02:30:20.938Z,2.90
2017-12-09T02:32:49.112Z,3.00
2017-12-09T02:35:17.286Z,3.15
2017-12-09T02:37:44.798Z,3.45
2017-12-09T02:40:12.375Z,2.65
2017-12-09T02:42:39.792Z,3.20
2017-12-09T02:45:07.326Z,3.33
2017-12-09T02:47:34.742Z,3.12
2017-12-09T02:50:02.952Z,2.80
2017-12-09T02:52:30.361Z,2.95
2017-12-09T02:54:57.786Z,3.30
2017-12-09T02:57:25.190Z,3.00
2017-12-09T02:59:52.631Z,4.05
2017-12-09T03:02:20.045Z,2.80
2017-12-09T03:04:47.572Z,3.17
2017-12-09T03:07:14.970Z,3.47
2017-12-09T03:09:42.494Z,2.97
2017-12-09T03:12:09.972Z,3.25
2017-12-09T03:14:37.429Z,3.30
2017-12-09T03:17:04.906Z,4.15
2017-12-09T03:19:32.313Z,3.10
2017-12-09T03:21:59.741Z,2.90
2017-12-09T03:24:27.134Z,3.08
2017-12-09T03:26:54.552Z,2.83
2017-12-09T03:29:22.736Z,3.85
2017-12-09T03:31:50.950Z,2.22
2017-12-09T03:34:18.361Z,3.20
2017-12-09T03:36:45.773Z,3.08
2017-12-09T03:39:13.182Z,3.30
2017-12-09T03:41:40.617Z,2.70
2017-12-09T03:44:08.033Z,2.97
2017-12-09T03:46:35.442Z,3.42
2017-12-09T03:49:02.899Z,3.80
2017-12-09T03:51:31.074Z,2.78
2017-12-09T03:53:58.490Z,3.00
2017-12-09T03:56:25.909Z,2.75
2017-12-09T03:58:53.338Z,3.17
2017-12-09T04:01:20.783Z,3.20
2017-12-09T04:03:48.208Z,3.58
2017-12-09T04:06:15.720Z,3.62
2017-12-09T04:08:43.128Z,3.15
2017-12-09T04:11:10.533Z,2.80
2017-12-09T04:13:38.040Z,3.45
2017-12-09T04:16:05.441Z,3.78
2017-12-09T04:18:32.861Z,4.00
2017-12-09T04:21:00.252Z,4.28
2017-12-09T04:23:27.665Z,3.58
2017-12-09T04:25:55.837Z,4.60
2017-12-09T04:28:23.279Z,4.18
2017-12-09T04:30:50.702Z,3.90
2017-12-09T04:33:18.868Z,3.85
2017-12-09T04:35:47.044Z,3.87
2017-12-09T04:38:14.482Z,4.32
2017-12-09T04:40:41.922Z,4.07
2017-12-09T04:43:09.399Z,3.92
2017-12-09T04:45:36.815Z,4.40
2017-12-09T04:48:04.996Z,3.90
2017-12-09T04:50:32.517Z,4.90
2017-12-09T04:52:59.914Z,5.15
2017-12-09T04:55:27.326Z,4.78
2017-12-09T04:57:55.631Z,3.85
2017-12-09T05:00:23.049Z,4.85
2017-12-09T05:02:50.471Z,4.93
2017-12-09T05:05:17.881Z,5.40
2017-12-09T05:07:45.289Z,4.87
2017-12-09T05:10:12.794Z,4.65
2017-12-09T05:12:40.212Z,5.62
2017-12-09T05:15:08.390Z,5.00
2017-12-09T05:17:35.813Z,5.00
2017-12-09T05:20:03.270Z,5.65
2017-12-09T05:22:30.729Z,5.00
2017-12-09T05:24:58.150Z,5.80
2017-12-09T05:27:25.568Z,4.82
2017-12-09T05:29:52.983Z,5.03
2017-12-09T05:32:20.402Z,4.80
2017-12-09T05:34:47.811Z,5.00
2017-12-09T05:37:15.231Z,4.60
2017-12-09T05:39:42.646Z,4.07
2017-12-09T05:42:10.063Z,4.30
2017-12-09T05:44:38.237Z,4.15
2017-12-09T05:47:06.406Z,3.85
2017-12-09T05:49:33.833Z,3.70
2017-12-09T05:52:01.288Z,3.80
2017-12-09T05:54:28.698Z,4.15
2017-12-09T05:56:56.232Z,2.85
2017-12-09T05:59:23.686Z,3.00
2017-12-09T06:01:51.163Z,3.10
2017-12-09T06:04:18.635Z,3.37
2017-12-09T06:06:46.806Z,2.97
2017-12-09T06:09:14.222Z,3.00
2017-12-09T06:11:41.638Z,3.05
2017-12-09T06:14:09.052Z,2.80
2017-12-09T06:16:36.468Z,2.70
2017-12-09T06:19:04.643Z,3.05
2017-12-09T06:21:32.831Z,3.83
2017-12-09T06:24:00.341Z,4.43
2017-12-09T06:26:27.790Z,4.03
2017-12-09T06:28:55.228Z,4.47
2017-12-09T06:31:22.626Z,4.22
2017-12-09T06:33:51.031Z,4.18
2017-12-09T06:36:18.468Z,4.50
2017-12-09T06:38:45.865Z,4.78
2017-12-09T06:41:13.280Z,4.25
2017-12-09T06:43:40.707Z,5.25
2017-12-09T06:46:08.113Z,4.50
2017-12-09T06:48:35.625Z,5.65
2017-12-09T06:51:03.051Z,5.70
2017-12-09T06:53:30.744Z,6.40
2017-12-09T06:55:58.121Z,5.82
2017-12-09T06:58:26.297Z,6.65
2017-12-09T07:00:54.516Z,6.72
2017-12-09T07:03:22.693Z,6.35
2017-12-09T07:05:50.157Z,7.00
2017-12-09T07:08:17.653Z,7.60
2017-12-09T07:10:45.063Z,7.28
2017-12-09T07:13:12.493Z,6.45
2017-12-09T07:15:39.908Z,7.68
2017-12-09T07:18:08.078Z,7.78
2017-12-09T07:20:35.507Z,7.25
2017-12-09T07:23:02.922Z,7.50
2017-12-09T07:25:30.421Z,8.93
2017-12-09T07:27:57.834Z,9.23
2017-12-09T07:30:25.239Z,8.75
2017-12-09T07:32:53.450Z,8.02
2017-12-09T07:35:20.859Z,8.40
2017-12-09T07:37:48.298Z,8.20
2017-12-09T07:40:15.702Z,7.43
2017-12-09T07:42:43.139Z,8.88
2017-12-09T07:45:10.547Z,8.80
2017-12-09T07:47:38.079Z,9.40
2017-12-09T07:50:05.533Z,8.77
2017-12-09T07:52:32.993Z,10.00
2017-12-09T07:55:00.415Z,8.25
2017-12-09T07:57:27.844Z,8.07
2017-12-09T07:59:55.309Z,8.05
2017-12-09T08:02:22.721Z,7.80
2017-12-09T08:04:50.143Z,6.55
2017-12-09T08:07:17.561Z,7.97
2017-12-09T08:09:44.992Z,8.23
2017-12-09T08:12:12.452Z,7.20
2017-12-09T08:14:39.846Z,7.90
2017-12-09T08:17:07.290Z,7.45
2017-12-09T08:19:34.707Z,7.70
2017-12-09T08:22:02.122Z,7.72
2017-12-09T08:24:29.525Z,7.00
2017-12-09T08:26:56.976Z,7.32
2017-12-09T08:29:24.430Z,6.37
2017-12-09T08:31:51.850Z,6.62
2017-12-09T08:34:20.038Z,6.00
2017-12-09T08:36:47.473Z,5.68
2017-12-09T08:39:14.880Z,5.82
2017-12-09T08:41:42.289Z,5.72
2017-12-09T08:44:09.762Z,5.43
2017-12-09T08:46:37.228Z,4.93
2017-12-09T08:49:04.652Z,5.50
2017-12-09T08:51:32.827Z,5.15
2017-12-09T08:54:00.241Z,4.87
2017-12-09T08:56:27.741Z,5.25
2017-12-09T08:58:55.126Z,4.75
2017-12-09T09:01:22.536Z,4.50
2017-12-09T09:03:49.950Z,4.12
2017-12-09T09:06:17.349Z,4.43
2017-12-09T09:08:45.569Z,4.50
2017-12-09T09:11:12.995Z,4.25
2017-12-09T09:13:40.512Z,4.10
2017-12-09T09:16:07.915Z,4.07
2017-12-09T09:18:35.352Z,4.45
2017-12-09T09:21:02.810Z,4.43
2017-12-09T09:23:30.998Z,4.70
2017-12-09T09:25:59.147Z,4.60
2017-12-09T09:28:27.346Z,4.47
2017-12-09T09:30:55.557Z,4.57
2017-12-09T09:33:23.025Z,4.30
2017-12-09T09:35:50.419Z,4.15
2017-12-09T09:38:17.858Z,4.75
2017-12-09T09:40:45.277Z,4.47
2017-12-09T09:43:12.766Z,4.10
2017-12-09T09:45:40.166Z,4.80
2017-12-09T09:48:07.597Z,4.75
2017-12-09T09:50:35.774Z,5.70
2017-12-09T09:53:03.950Z,6.37
2017-12-09T09:55:31.366Z,5.93
2017-12-09T09:57:58.782Z,6.65
2017-12-09T10:00:26.416Z,6.28
2017-12-09T10:02:53.823Z,7.07
2017-12-09T10:05:22.733Z,6.60
2017-12-09T10:07:50.253Z,7.57
2017-12-09T10:10:17.678Z,5.90
2017-12-09T10:12:45.085Z,6.45
2017-12-09T10:15:12.692Z,6.90
2017-12-09T10:17:40.087Z,6.85
2017-12-09T10:20:08.310Z,7.80
2017-12-09T10:22:35.793Z,7.68
2017-12-09T10:25:03.253Z,8.05
2017-12-09T10:27:30.779Z,8.52
2017-12-09T10:29:58.293Z,8.68
2017-12-09T10:32:25.713Z,8.50
2017-12-09T10:34:53.129Z,8.05
2017-12-09T10:37:23.855Z,8.88
2017-12-09T10:39:52.222Z,8.38
2017-12-09T10:42:20.446Z,9.10
2017-12-09T10:44:47.914Z,8.40
2017-12-09T10:47:15.322Z,7.57
2017-12-09T10:49:43.552Z,7.90
2017-12-09T10:52:11.795Z,7.35
2017-12-09T10:54:39.263Z,8.32
2017-12-09T10:57:08.490Z,8.68
2017-12-09T10:59:36.175Z,8.82
2017-12-09T11:02:03.583Z,8.38
2017-12-09T11:04:30.994Z,7.70
2017-12-09T11:06:58.407Z,8.90
2017-12-09T11:09:25.838Z,8.50
2017-12-09T11:11:53.262Z,8.02
2017-12-09T11:14:21.484Z,7.65
2017-12-09T11:16:49.630Z,7.47
2017-12-09T11:19:17.873Z,7.12
2017-12-09T11:21:45.258Z,6.18
2017-12-09T11:24:12.788Z,7.47
2017-12-09T11:26:40.203Z,8.32
2017-12-09T11:29:07.754Z,7.47
2017-12-09T11:31:35.160Z,7.95
2017-12-09T11:34:03.343Z,7.60
2017-12-09T11:36:31.570Z,7.12
2017-12-09T11:38:58.981Z,7.37
2017-12-09T11:41:26.530Z,7.20
2017-12-09T11:43:53.978Z,7.00
2017-12-09T11:46:21.446Z,6.40
2017-12-09T11:48:49.621Z,6.87
2017-12-09T11:51:17.102Z,6.72
2017-12-09T11:53:45.263Z,6.62
2017-12-09T11:56:13.445Z,7.57
2017-12-09T11:58:40.932Z,7.30
2017-12-09T12:01:08.309Z,5.82
2017-12-09T12:03:35.702Z,6.65
2017-12-09T12:06:03.157Z,6.80
2017-12-09T12:08:30.602Z,7.15
2017-12-09T12:10:58.074Z,6.53
2017-12-09T12:13:25.485Z,7.55
2017-12-09T12:15:52.915Z,7.20
2017-12-09T12:18:20.323Z,5.97
2017-12-09T12:20:47.955Z,7.05
2017-12-09T12:23:15.414Z,6.40
2017-12-09T12:25:42.838Z,5.75
2017-12-09T12:28:10.379Z,6.45
2017-12-09T12:30:37.790Z,6.93
2017-12-09T12:33:06.010Z,6.55
2017-12-09T12:35:33.487Z,6.70
2017-12-09T12:38:01.661Z,6.43
2017-12-09T12:40:29.112Z,5.43
2017-12-09T12:42:57.290Z,5.40
2017-12-09T12:45:25.516Z,6.00
2017-12-09T12:47:52.979Z,5.32
2017-12-09T12:50:20.386Z,6.80
2017-12-09T12:52:47.814Z,6.85
2017-12-09T12:55:15.294Z,6.80
2017-12-09T12:57:42.757Z,7.10
2017-12-09T13:00:10.172Z,5.82
2017-12-09T13:02:37.630Z,7.00
2017-12-09T13:05:05.038Z,6.80
2017-12-09T13:07:33.214Z,7.12
2017-12-09T13:10:01.434Z,6.62
2017-12-09T13:12:29.609Z,6.53
2017-12-09T13:14:57.008Z,6.97
2017-12-09T13:17:24.441Z,6.87
2017-12-09T13:19:51.876Z,6.55
2017-12-09T13:22:19.285Z,6.32
2017-12-09T13:24:46.709Z,6.60
2017-12-09T13:27:14.147Z,6.50
2017-12-09T13:29:41.558Z,6.25
2017-12-09T13:32:09.739Z,6.35
2017-12-09T13:34:37.922Z,7.15
2017-12-09T13:37:05.334Z,6.57
2017-12-09T13:39:32.813Z,7.05
2017-12-09T13:42:00.222Z,6.95
2017-12-09T13:44:27.654Z,6.70
2017-12-09T13:46:55.058Z,7.37
2017-12-09T13:49:22.481Z,6.70
2017-12-09T13:51:49.942Z,7.12
2017-12-09T13:54:17.378Z,5.62
2017-12-09T13:56:45.549Z,8.55
2017-12-09T13:59:13.066Z,7.40
2017-12-09T14:01:41.231Z,7.05
2017-12-09T14:04:08.822Z,7.45
2017-12-09T14:06:36.283Z,6.65
2017-12-09T14:09:03.689Z,8.02
2017-12-09T14:11:31.125Z,7.65
2017-12-09T14:13:58.516Z,7.12
2017-12-09T14:16:25.959Z,7.55
2017-12-09T14:18:53.360Z,7.68
2017-12-09T14:21:20.766Z,7.25
2017-12-09T14:23:48.937Z,8.15
2017-12-09T14:26:16.452Z,8.07
2017-12-09T14:28:43.922Z,7.20
2017-12-09T14:31:12.080Z,7.10
2017-12-09T14:33:40.255Z,7.60
2017-12-09T14:36:08.438Z,6.55
2017-12-09T14:38:36.651Z,7.90
2017-12-09T14:41:04.070Z,8.10
2017-12-09T14:43:31.481Z,7.68
2017-12-09T14:45:59.658Z,8.20
2017-12-09T14:48:27.855Z,7.72
2017-12-09T14:50:56.030Z,7.93
2017-12-09T14:53:24.218Z,8.15
2017-12-09T14:55:52.402Z,7.82
2017-12-09T14:58:20.616Z,7.53
2017-12-09T15:00:48.808Z,7.62
2017-12-09T15:03:16.223Z,7.53
2017-12-09T15:05:43.741Z,8.00
2017-12-09T15:08:11.901Z,8.65
2017-12-09T15:10:40.091Z,8.10
2017-12-09T15:13:08.272Z,8.70
2017-12-09T15:15:36.479Z,8.85
2017-12-09T15:18:03.905Z,8.85
2017-12-09T15:20:31.411Z,9.82
2017-12-09T15:22:58.833Z,9.95
2017-12-09T15:25:26.270Z,9.65
2017-12-09T15:27:53.717Z,9.00
2017-12-09T15:30:21.137Z,9.25
2017-12-09T15:32:48.573Z,8.80
2017-12-09T15:35:15.982Z,8.38
2017-12-09T15:37:43.416Z,9.30
2017-12-09T15:40:10.874Z,9.50
2017-12-09T15:42:38.330Z,10.05
2017-12-09T15:45:05.750Z,10.07
2017-12-09T15:47:33.160Z,7.70
2017-12-09T15:50:00.652Z,9.80
2017-12-09T15:52:28.110Z,10.15
2017-12-09T15:54:56.288Z,10.40
2017-12-09T15:57:23.694Z,10.32
2017-12-09T15:59:51.103Z,9.73
2017-12-09T16:02:19.316Z,10.35
2017-12-09T16:04:46.721Z,10.20
2017-12-09T16:07:14.146Z,10.77
2017-12-09T16:09:41.585Z,11.55
2017-12-09T16:12:09.807Z,10.82
2017-12-09T16:14:37.974Z,11.15
2017-12-09T16:17:05.383Z,10.68
2017-12-09T16:19:32.805Z,11.15
2017-12-09T16:22:00.986Z,10.68
2017-12-09T16:24:28.419Z,11.05
2017-12-09T16:26:55.851Z,10.75
2017-12-09T16:29:23.263Z,10.07
2017-12-09T16:31:50.792Z,10.07
2017-12-09T16:34:18.197Z,10.60
2017-12-09T16:36:45.610Z,9.07
2017-12-09T16:39:13.027Z,8.90
2017-12-09T16:41:41.212Z,9.05
2017-12-09T16:44:09.426Z,8.85
2017-12-09T16:46:36.841Z,8.65
2017-12-09T16:49:04.275Z,9.23
2017-12-09T16:51:31.669Z,8.68
2017-12-09T16:53:59.094Z,8.35
2017-12-09T16:56:26.502Z,7.72
2017-12-09T16:58:54.683Z,7.72
2017-12-09T17:01:22.091Z,8.00
2017-12-09T17:03:50.403Z,7.35
2017-12-09T17:06:17.803Z,7.00
2017-12-09T17:08:45.246Z,7.50
2017-12-09T17:11:13.382Z,6.55
2017-12-09T17:13:40.798Z,5.95
2017-12-09T17:16:08.222Z,7.60
2017-12-09T17:18:36.425Z,7.35
2017-12-09T17:21:04.604Z,7.55
2017-12-09T17:23:32.770Z,7.45
2017-12-09T17:26:00.196Z,7.50
2017-12-09T17:28:27.598Z,7.10
2017-12-09T17:30:55.010Z,7.75
2017-12-09T17:33:22.422Z,7.10
2017-12-09T17:35:49.848Z,7.70
2017-12-09T17:38:17.252Z,7.50
2017-12-09T17:40:44.662Z,7.20
2017-12-09T17:43:12.870Z,8.07
2017-12-09T17:45:40.288Z,8.05
2017-12-09T17:48:07.716Z,8.68
2017-12-09T17:50:35.937Z,10.10
2017-12-09T17:53:03.362Z,10.55
2017-12-09T17:55:30.791Z,11.43
2017-12-09T17:57:58.193Z,13.65
2017-12-09T18:00:25.598Z,14.85
2017-12-09T18:02:53.010Z,13.50
2017-12-09T18:05:21.249Z,13.15
2017-12-09T18:07:53.535Z,13.05
2017-12-09T18:10:20.969Z,13.07
2017-12-09T18:12:48.452Z,13.20
2017-12-09T18:15:15.802Z,13.05
2017-12-09T18:17:43.290Z,13.55
2017-12-09T18:20:10.747Z,14.38
2017-12-09T18:22:38.225Z,14.27
2017-12-09T18:25:05.670Z,14.85
2017-12-09T18:27:33.082Z,12.90
2017-12-09T18:30:00.518Z,12.93
2017-12-09T18:32:28.726Z,13.20
2017-12-09T18:34:56.189Z,11.77
2017-12-09T18:37:23.648Z,13.25
2017-12-09T18:39:51.163Z,12.65
2017-12-09T18:42:18.572Z,13.50
2017-12-09T18:44:46.773Z,12.82
2017-12-09T18:47:14.177Z,12.80
2017-12-09T18:49:41.592Z,11.12
2017-12-09T18:52:09.766Z,12.10
2017-12-09T18:54:38.186Z,11.15
2017-12-09T18:57:05.651Z,9.00
2017-12-09T18:59:33.058Z,9.65
2017-12-09T19:02:00.474Z,8.23
2017-12-09T19:04:27.956Z,8.70
2017-12-09T19:06:55.417Z,8.38
2017-12-09T19:09:22.825Z,8.90
2017-12-09T19:11:50.239Z,8.52
2017-12-09T19:14:18.416Z,7.80
2017-12-09T19:16:45.834Z,7.82
2017-12-09T19:19:13.316Z,7.65
2017-12-09T19:21:40.732Z,7.30
2017-12-09T19:24:08.931Z,7.93
2017-12-09T19:26:36.356Z,8.18
2017-12-09T19:29:03.781Z,8.50
2017-12-09T19:31:31.191Z,8.13
2017-12-09T19:33:58.606Z,9.80
2017-12-09T19:36:26.053Z,7.80
2017-12-09T19:38:53.460Z,7.75
2017-12-09T19:41:20.928Z,8.15
2017-12-09T19:43:48.356Z,7.53
2017-12-09T19:46:15.854Z,8.77
2017-12-09T19:48:43.270Z,8.48
2017-12-09T19:51:11.631Z,8.25
2017-12-09T19:53:39.892Z,8.50
2017-12-09T19:56:07.321Z,7.90
2017-12-09T19:58:34.776Z,7.22
2017-12-09T20:01:02.179Z,8.30
2017-12-09T20:03:29.599Z,9.50
2017-12-09T20:05:57.072Z,9.20
2017-12-09T20:08:24.490Z,9.05
2017-12-09T20:10:51.909Z,9.80
2017-12-09T20:13:19.325Z,9.90
2017-12-09T20:15:46.748Z,8.68
2017-12-09T20:18:14.156Z,9.18
2017-12-09T20:20:41.580Z,8.70
2017-12-09T20:23:09.057Z,8.75
2017-12-09T20:25:36.514Z,9.40
2017-12-09T20:28:03.938Z,8.38
2017-12-09T20:30:31.370Z,7.85
2017-12-09T20:32:58.778Z,9.27
2017-12-09T20:35:26.210Z,8.52
2017-12-09T20:37:53.642Z,8.15
2017-12-09T20:40:21.838Z,7.70
2017-12-09T20:42:50.035Z,7.20
2017-12-09T20:45:17.474Z,7.68
2017-12-09T20:47:45.695Z,7.90
2017-12-09T20:50:13.098Z,7.37
2017-12-09T20:52:40.511Z,6.60
2017-12-09T20:55:08.013Z,6.35
2017-12-09T20:57:35.430Z,6.10
2017-12-09T21:00:03.615Z,6.20
2017-12-09T21:02:31.816Z,6.10
2017-12-09T21:05:00.016Z,8.02
2017-12-09T21:07:27.422Z,8.20
2017-12-09T21:09:54.862Z,10.13
2017-12-09T21:12:22.265Z,11.32
2017-12-09T21:14:49.838Z,13.82
2017-12-09T21:17:17.382Z,14.38
2017-12-09T21:19:44.798Z,15.43
2017-12-09T21:22:12.270Z,14.95
2017-12-09T21:24:39.690Z,18.42
2017-12-09T21:27:07.109Z,18.02
2017-12-09T21:29:34.626Z,19.50
2017-12-09T21:32:02.086Z,19.12
2017-12-09T21:34:29.507Z,19.98
2017-12-09T21:36:56.946Z,21.08
2017-12-09T21:39:24.396Z,20.35
2017-12-09T21:41:52.570Z,18.48
2017-12-09T21:44:20.767Z,19.48
2017-12-09T21:46:48.967Z,19.92
2017-12-09T21:49:17.138Z,18.75
2017-12-09T21:51:45.311Z,18.98
2017-12-09T21:54:13.498Z,20.10
2017-12-09T21:56:40.910Z,19.45
2017-12-09T21:59:08.351Z,18.92
2017-12-09T22:01:35.768Z,19.90
2017-12-09T22:04:03.177Z,17.95
2017-12-09T22:06:30.665Z,19.35
2017-12-09T22:08:58.069Z,17.62
2017-12-09T22:11:25.592Z,18.08
2017-12-09T22:13:53.090Z,16.77
2017-12-09T22:16:20.534Z,18.12
2017-12-09T22:18:47.949Z,17.60
2017-12-09T22:21:15.377Z,16.75
2017-12-09T22:23:42.842Z,16.10
2017-12-09T22:26:10.356Z,15.55
2017-12-09T22:28:37.898Z,14.75
2017-12-09T22:31:05.300Z,15.07
2017-12-09T22:33:32.710Z,13.10
2017-12-09T22:36:00.150Z,13.62
2017-12-09T22:38:27.690Z,13.15
2017-12-09T22:40:55.110Z,12.00
2017-12-09T22:43:23.298Z,13.00
2017-12-09T22:45:50.777Z,12.60
2017-12-09T22:48:18.197Z,13.05
2017-12-09T22:50:45.634Z,13.05
2017-12-09T22:53:13.046Z,11.63
2017-12-09T22:55:40.499Z,12.57
2017-12-09T22:58:07.959Z,11.70
2017-12-09T23:00:35.369Z,12.48
2017-12-09T23:03:02.871Z,10.65
2017-12-09T23:05:30.289Z,11.57
2017-12-09T23:07:57.699Z,10.43
2017-12-09T23:10:25.121Z,12.50
2017-12-09T23:12:52.629Z,12.57
2017-12-09T23:15:20.045Z,11.63
2017-12-09T23:17:47.490Z,12.07
2017-12-09T23:20:14.881Z,11.90
2017-12-09T23:22:42.308Z,11.80
2017-12-09T23:25:09.718Z,9.23
2017-12-09T23:27:37.147Z,11.68
2017-12-09T23:30:04.555Z,11.43
2017-12-09T23:32:31.982Z,11.60
2017-12-09T23:34:59.414Z,10.63
2017-12-09T23:37:27.815Z,11.10
2017-12-09T23:39:56.021Z,9.15
2017-12-09T23:42:23.500Z,11.12
2017-12-09T23:44:50.956Z,10.82
2017-12-09T23:47:18.456Z,11.85
2017-12-09T23:49:45.849Z,10.82
2017-12-09T23:52:13.278Z,10.90
2017-12-09T23:54:40.752Z,11.82
2017-12-09T23:57:08.249Z,11.23
2017-12-09T23:59:35.782Z,11.45
